Adel, OR

8:09 PM PDT on September 02, 2014 (GMT -0700)
RAWS CATNIP MOUNTAIN NV US | Change Station
CLOSE
Current Station
Personal Weather Station
Location: Adel, OR
Elevation: 5750 ft
Nearby Weather Stations

Elev 5750 ft 41.92 °N, 119.50 °W | Updated 42 minutes ago

Clear
Clear
75 °F
Feels Like 75 °F
N
16
Wind Variable Wind from NW
Gusts 24.0 mph

Today
High -- | Low -- °F
--% Chance of Precip.
Yesterday
High -- | Low -- °F
Precip. -- in
6:25 AM 7:30 PM
First Quarter, 57% visible
Pressure 29.92 in
Visibility 10.0 miles
Clouds Clear
Heat Index 75 °F
Dew Point 24 °F
Humidity 15%
Rainfall 0.00 in
Snow Depth Not available.
UV 0 out of 12
Pollen 5.40 out of 12
Air Quality Not available.
Flu Activity Not available.
METAR KLKV 030255Z AUTO 31009KT 10SM CLR 20/M07 A2992 RMK AO1 52003

More Conditions Fewer Conditions

Pressure 29.92 in
Visibility 10.0 miles
Clouds Clear
Heat Index 75 °F
Dew Point 24 °F
Humidity 15%
Rainfall 0.00 in
Snow Depth Not available.
UV 0 out of 12
Pollen 5.40 out of 12
Air Quality Not available.
Flu Activity Not available.
METAR KLKV 030255Z AUTO 31009KT 10SM CLR 20/M07 A2992 RMK AO1 52003

More Conditions Fewer Conditions

10-Day Weather Forecast

Almanac

Astronomy

Sep. 02, 2014 Rise Set
Actual Time 6:25 AM PDT 7:30 PM PDT
Civil Twilight 5:56 AM PDT 7:59 PM PDT
Nautical Twilight 5:22 AM PDT 8:33 PM PDT
Astronomical Twilight 4:46 AM PDT 9:09 PM PDT
Moon 2:22 PM PDT (9/2) No Moon Set
Length of Visible Light 14h 02m
Length of Day
13h 05m
Tomorrow will be 2m 45s shorter.
First Quarter, 57% of the Moon is Illuminated
Today
First Quarter
Sep 8
Full
Sep 15
Last Quarter
Sep 24
New
Oct 1
First Quarter

Today's Extremes

State Highs State Lows

Community

WunderPhotos

Upload Photos

1,749,860 photos uploaded!

Nearby

Snow Depth

Station Depth Elevation
Fish Creek 0 in 7900 ft
Strawberry 0 in 5760 ft
Snow Mountain 0 in 6220 ft
Sevenmile Marsh 0 in 6200 ft
Cold Springs Camp 0 in 6100 ft

Earthquake Activity

City Distance Mag. Time & Date
No recent earthquake activity has been reported nearby.
Minimum magnitude displayed is 2.5.

Coastal Water Temperatures

Place Temperature
No Stations Reporting

Nearby Weather Stations